Time;durP1;ratioP1;P1;durP2;ratioP2;P2;SDS_P1;SDS_P2;PMS_P1;PMS_P2;Temp;Humidity;BMP_temperature;BMP_pressure;BME280_temperature;BME280_humidity;BME280_pressure;Samples;Min_cycle;Max_cycle;Signal;HPM_P1;HPM_P2
2021/10/22 00:04:32;;;;;;;9.35;0.40;;;6.80;99.90;;;;;;10377535;28;20041;-58
2021/10/22 00:09:34;;;;;;;3.65;0.50;;;6.80;99.90;;;;;;10383043;28;20046;-58
2021/10/22 00:14:35;;;;;;;5.18;0.50;;;6.70;99.90;;;;;;10378279;28;20087;-58
2021/10/22 00:19:37;;;;;;;7.32;0.38;;;6.70;99.90;;;;;;10377919;28;20144;-58
2021/10/22 00:24:39;;;;;;;7.00;0.47;;;6.70;99.90;;;;;;10379291;28;20077;-59
2021/10/22 00:29:40;;;;;;;3.47;0.32;;;6.60;99.90;;;;;;10359470;28;20136;-59
2021/10/22 00:34:42;;;;;;;5.93;0.75;;;6.60;99.90;;;;;;10378435;28;20087;-58
2021/10/22 00:39:44;;;;;;;8.73;1.08;;;6.60;99.90;;;;;;10377606;28;20045;-57
2021/10/22 00:44:48;;;;;;;5.28;0.47;;;6.60;99.90;;;;;;10375886;28;20099;-58
2021/10/22 00:49:50;;;;;;;4.93;1.05;;;6.50;99.90;;;;;;10371215;28;20049;-57
2021/10/22 00:54:54;;;;;;;7.28;0.40;;;6.60;99.90;;;;;;10372901;28;20061;-58
2021/10/22 00:59:55;;;;;;;5.20;0.50;;;6.50;99.90;;;;;;10372367;28;20399;-58
2021/10/22 01:04:57;;;;;;;5.72;0.50;;;6.50;99.90;;;;;;10374500;28;20131;-58
2021/10/22 01:09:59;;;;;;;6.00;0.45;;;6.50;99.90;;;;;;10373495;28;20507;-58
2021/10/22 01:15:01;;;;;;;10.60;0.60;;;6.50;99.90;;;;;;10376889;28;20049;-57
2021/10/22 01:20:06;;;;;;;11.77;0.45;;;6.40;99.90;;;;;;10361002;28;20049;-58
2021/10/22 01:25:09;;;;;;;8.05;0.60;;;6.40;99.90;;;;;;10371762;28;20062;-57
2021/10/22 01:30:13;;;;;;;6.05;0.60;;;6.40;99.90;;;;;;10368913;28;20073;-58
2021/10/22 01:35:15;;;;;;;7.45;0.40;;;6.30;99.90;;;;;;10377297;28;20049;-58
2021/10/22 01:40:17;;;;;;;4.88;0.60;;;6.30;99.90;;;;;;10373139;28;20068;-58
2021/10/22 01:45:18;;;;;;;8.43;0.43;;;6.30;99.90;;;;;;10372374;28;20077;-58
2021/10/22 01:50:20;;;;;;;2.85;0.30;;;6.20;99.90;;;;;;10379653;28;20171;-58
2021/10/22 01:55:22;;;;;;;7.85;0.57;;;6.20;99.90;;;;;;10360868;28;20045;-58
2021/10/22 02:00:24;;;;;;;3.15;0.40;;;6.20;99.90;;;;;;10377677;28;20128;-58
2021/10/22 02:05:26;;;;;;;11.57;0.43;;;6.10;99.90;;;;;;10371714;28;20085;-58
2021/10/22 02:10:28;;;;;;;11.45;1.45;;;6.10;99.90;;;;;;10374020;28;20057;-57
2021/10/22 02:15:30;;;;;;;6.63;0.30;;;6.10;99.90;;;;;;10372413;28;20434;-58
2021/10/22 02:20:33;;;;;;;3.70;0.40;;;6.00;99.90;;;;;;10368659;28;20088;-58
2021/10/22 02:25:34;;;;;;;7.43;0.50;;;6.00;99.90;;;;;;10373396;28;20077;-58
2021/10/22 02:30:36;;;;;;;3.50;0.30;;;6.00;99.90;;;;;;10369777;28;20066;-58
2021/10/22 02:35:38;;;;;;;8.68;0.77;;;6.00;99.90;;;;;;10354451;28;20108;-58
2021/10/22 02:40:40;;;;;;;9.38;0.50;;;6.00;99.90;;;;;;10368756;28;20046;-57
2021/10/22 02:45:46;;;;;;;6.03;0.40;;;5.90;99.90;;;;;;10368875;28;20126;-57
2021/10/22 02:50:48;;;;;;;7.55;0.52;;;5.90;99.90;;;;;;10372993;28;20103;-57
2021/10/22 02:55:50;;;;;;;7.20;0.40;;;5.90;99.90;;;;;;10366264;28;20042;-58
2021/10/22 03:00:51;;;;;;;3.55;0.40;;;5.80;99.90;;;;;;10372826;28;20065;-58
2021/10/22 03:05:53;;;;;;;6.75;0.40;;;5.80;99.90;;;;;;10366485;28;20480;-58
2021/10/22 03:10:55;;;;;;;6.90;0.40;;;5.80;99.90;;;;;;10369329;28;20057;-59
2021/10/22 03:15:57;;;;;;;3.17;0.28;;;5.70;99.90;;;;;;10375797;28;20050;-58
2021/10/22 03:20:58;;;;;;;11.90;0.50;;;5.70;99.90;;;;;;10367252;28;20091;-59
2021/10/22 03:26:00;;;;;;;6.25;0.40;;;5.70;99.90;;;;;;10370464;28;20280;-58
2021/10/22 03:31:02;;;;;;;12.55;0.70;;;5.70;99.90;;;;;;10369270;28;20104;-58
2021/10/22 03:36:04;;;;;;;7.95;0.50;;;5.70;99.90;;;;;;10368525;28;20149;-59
2021/10/22 03:41:11;;;;;;;6.68;0.50;;;5.70;99.90;;;;;;10366926;28;20061;-59
2021/10/22 03:46:12;;;;;;;3.90;0.40;;;5.70;99.90;;;;;;10368031;28;20138;-59
2021/10/22 03:51:14;;;;;;;9.82;0.60;;;5.70;99.90;;;;;;10372019;28;20049;-58
2021/10/22 03:56:16;;;;;;;3.35;0.30;;;5.60;99.90;;;;;;10366388;28;20092;-58
2021/10/22 04:01:18;;;;;;;7.25;0.60;;;5.60;99.90;;;;;;10374819;28;20092;-57
2021/10/22 04:06:20;;;;;;;7.75;0.60;;;5.50;99.90;;;;;;10372471;28;20045;-57
2021/10/22 04:11:22;;;;;;;5.70;0.70;;;5.50;99.90;;;;;;10357288;28;20041;-58
2021/10/22 04:16:23;;;;;;;40.97;6.50;;;5.40;99.90;;;;;;10359225;28;20111;-59
2021/10/22 04:21:25;;;;;;;5.70;0.90;;;5.40;99.90;;;;;;10375018;28;20136;-58
2021/10/22 04:26:27;;;;;;;11.63;0.80;;;5.30;99.90;;;;;;10367426;28;20079;-58
2021/10/22 04:31:29;;;;;;;6.50;0.80;;;5.30;99.90;;;;;;10377849;28;20041;-57
2021/10/22 04:36:31;;;;;;;4.32;0.40;;;5.30;99.90;;;;;;10379196;28;20049;-58
2021/10/22 04:41:33;;;;;;;6.35;0.47;;;5.30;99.90;;;;;;10377990;28;20061;-58
2021/10/22 04:46:34;;;;;;;12.18;1.42;;;5.30;99.90;;;;;;10373641;28;20070;-57
2021/10/22 04:51:36;;;;;;;4.70;0.70;;;5.30;99.90;;;;;;10377633;28;20041;-57
2021/10/22 04:56:38;;;;;;;5.35;0.52;;;5.30;99.90;;;;;;10376036;28;20057;-58
2021/10/22 05:01:39;;;;;;;2.65;0.80;;;5.30;99.90;;;;;;10375656;28;20070;-58
2021/10/22 05:06:41;;;;;;;10.32;0.80;;;5.30;99.90;;;;;;10376117;28;20599;-57
2021/10/22 05:11:43;;;;;;;6.22;0.77;;;5.30;99.90;;;;;;10377884;28;20115;-58
2021/10/22 05:16:44;;;;;;;5.93;0.60;;;5.20;99.90;;;;;;10379225;28;20103;-57
2021/10/22 05:21:46;;;;;;;6.63;0.68;;;5.10;99.90;;;;;;10374661;28;20124;-58
2021/10/22 05:26:48;;;;;;;8.25;0.98;;;5.10;99.90;;;;;;10382661;28;20053;-58
2021/10/22 05:31:50;;;;;;;5.53;0.75;;;5.10;99.90;;;;;;10368830;28;20462;-58
2021/10/22 05:36:52;;;;;;;7.63;1.90;;;5.00;99.90;;;;;;10362342;28;20092;-58
2021/10/22 05:41:54;;;;;;;4.63;0.93;;;4.90;99.90;;;;;;10370504;28;20041;-59
2021/10/22 05:46:56;;;;;;;3.88;0.68;;;4.90;99.90;;;;;;10369702;28;20046;-58
2021/10/22 05:51:58;;;;;;;6.50;1.05;;;4.90;99.90;;;;;;10375207;28;20069;-58
2021/10/22 05:57:00;;;;;;;5.78;1.02;;;4.80;99.90;;;;;;10356175;28;20061;-60
2021/10/22 06:02:02;;;;;;;8.27;0.95;;;4.80;99.90;;;;;;10378477;28;20111;-61
2021/10/22 06:07:04;;;;;;;12.93;1.38;;;4.80;99.90;;;;;;10375894;28;20052;-60
2021/10/22 06:12:06;;;;;;;7.22;0.88;;;4.80;99.90;;;;;;10373657;28;20045;-60
2021/10/22 06:17:08;;;;;;;10.52;0.98;;;4.80;99.90;;;;;;10360191;28;20050;-60
2021/10/22 06:27:34;;;;;;;11.82;1.23;;;4.80;99.90;;;;;;10360125;28;20074;-60
2021/10/22 06:32:36;;;;;;;6.15;1.17;;;4.80;99.90;;;;;;10376611;28;20045;-61
2021/10/22 06:37:38;;;;;;;10.75;0.85;;;4.90;99.90;;;;;;10371568;28;20112;-61
2021/10/22 06:42:40;;;;;;;4.57;1.45;;;4.90;99.90;;;;;;10341061;28;20081;-61
2021/10/22 06:47:41;;;;;;;8.13;1.27;;;5.00;99.90;;;;;;10374138;28;20146;-61
2021/10/22 06:52:43;;;;;;;7.82;1.00;;;5.00;99.90;;;;;;10366017;28;20226;-61
2021/10/22 06:57:45;;;;;;;5.13;1.40;;;5.10;99.90;;;;;;10372394;28;20065;-61
2021/10/22 07:02:47;;;;;;;9.82;1.50;;;5.10;99.90;;;;;;10366329;28;20539;-61
2021/10/22 07:07:49;;;;;;;11.85;1.67;;;5.10;99.90;;;;;;10373706;28;20050;-61
2021/10/22 07:12:51;;;;;;;9.35;1.67;;;5.20;99.90;;;;;;10364854;28;20050;-61
2021/10/22 07:17:56;;;;;;;10.07;1.67;;;5.30;99.90;;;;;;10351689;28;20069;-62
2021/10/22 07:28:11;;;;;;;4.35;2.13;;;5.40;99.90;;;;;;10385737;28;20056;-89
2021/10/22 07:33:17;;;;;;;8.25;1.60;;;5.50;99.90;;;;;;10370584;28;20492;-88
2021/10/22 07:38:19;;;;;;;7.72;2.83;;;5.50;99.90;;;;;;10379660;28;20060;-88
2021/10/22 07:43:21;;;;;;;10.82;1.90;;;5.60;99.90;;;;;;10377447;28;20050;-88
2021/10/22 07:48:23;;;;;;;15.98;1.63;;;5.70;99.90;;;;;;10364205;28;20074;-88
2021/10/22 07:53:25;;;;;;;7.85;1.58;;;5.80;99.90;;;;;;10396790;28;20050;-88
2021/10/22 07:58:27;;;;;;;9.68;1.58;;;5.90;99.90;;;;;;10358203;28;20042;-88
2021/10/22 08:03:29;;;;;;;6.18;1.40;;;6.00;99.90;;;;;;10332925;28;20133;-90
2021/10/22 08:08:31;;;;;;;4.55;1.55;;;6.10;99.90;;;;;;10317587;28;20056;-89
2021/10/22 08:13:34;;;;;;;5.18;1.40;;;6.20;99.90;;;;;;10336134;28;20057;-89
2021/10/22 08:18:38;;;;;;;5.82;1.58;;;6.30;99.90;;;;;;10316369;28;20094;-89
2021/10/22 08:23:39;;;;;;;7.93;1.45;;;6.40;99.90;;;;;;10328535;28;20045;-89
2021/10/22 08:28:45;;;;;;;18.02;1.38;;;6.50;99.90;;;;;;10337957;28;20064;-89
2021/10/22 08:33:47;;;;;;;4.18;1.15;;;6.60;99.90;;;;;;10322859;28;20038;-88
2021/10/22 08:38:50;;;;;;;7.85;1.83;;;6.70;99.90;;;;;;10260751;28;20129;-88
2021/10/22 08:43:55;;;;;;;8.85;1.30;;;6.80;99.90;;;;;;10298959;28;20093;-89
2021/10/22 08:48:57;;;;;;;4.75;0.93;;;6.90;99.90;;;;;;10319763;28;20050;-90
2021/10/22 08:53:59;;;;;;;12.75;1.60;;;7.00;99.90;;;;;;10316754;28;20038;-89
2021/10/22 08:59:03;;;;;;;7.90;1.48;;;7.20;99.90;;;;;;10223701;28;20051;-88
2021/10/22 09:04:05;;;;;;;12.15;1.58;;;7.30;99.90;;;;;;10312537;28;20042;-89
2021/10/22 09:09:17;;;;;;;7.03;1.13;;;7.50;99.90;;;;;;10309962;28;20061;-89
2021/10/22 09:14:19;;;;;;;5.75;0.85;;;7.60;99.90;;;;;;10353570;28;20050;-89
2021/10/22 09:19:33;;;;;;;3.70;0.70;;;7.70;99.90;;;;;;10286782;28;20092;-89
2021/10/22 09:25:06;;;;;;;4.65;1.10;;;7.90;99.90;;;;;;10291522;28;20054;-90
2021/10/22 09:30:24;;;;;;;6.57;1.40;;;8.10;99.90;;;;;;10325601;28;20522;-90
2021/10/22 09:35:43;;;;;;;3.50;0.82;;;8.30;99.90;;;;;;10310174;28;20081;-89
2021/10/22 09:40:48;;;;;;;12.25;0.82;;;8.50;99.90;;;;;;10293039;28;20068;-89
2021/10/22 09:46:05;;;;;;;6.10;0.80;;;8.60;99.90;;;;;;10315078;28;20058;-89
2021/10/22 09:51:37;;;;;;;6.93;0.57;;;8.80;99.90;;;;;;10306117;28;20053;-89
2021/10/22 09:56:50;;;;;;;6.13;0.95;;;9.00;99.90;;;;;;10314731;28;20040;-89
2021/10/22 10:01:58;;;;;;;4.15;0.82;;;9.10;99.90;;;;;;10304495;28;20038;-89
2021/10/22 10:07:02;;;;;;;3.92;0.55;;;9.30;99.90;;;;;;10346244;28;20488;-89
2021/10/22 10:12:04;;;;;;;1.35;0.60;;;9.30;99.80;;;;;;10329639;28;20112;-89
2021/10/22 10:17:06;;;;;;;6.63;0.70;;;9.50;99.70;;;;;;10311858;28;20046;-90
2021/10/22 10:22:12;;;;;;;4.85;0.60;;;9.50;99.60;;;;;;10350345;28;20165;-91
2021/10/22 10:27:16;;;;;;;3.10;0.57;;;9.70;99.30;;;;;;10304458;28;20595;-90
2021/10/22 10:32:26;;;;;;;3.60;0.30;;;9.90;98.60;;;;;;10281540;28;20054;-89
2021/10/22 10:37:41;;;;;;;4.15;0.68;;;10.10;97.40;;;;;;10333274;28;20108;-89
2021/10/22 10:42:51;;;;;;;3.92;0.50;;;10.10;97.00;;;;;;10332272;28;20212;-89
2021/10/22 10:48:07;;;;;;;3.58;0.38;;;10.30;96.90;;;;;;10229209;28;20070;-89
2021/10/22 10:53:16;;;;;;;3.28;0.38;;;10.50;95.90;;;;;;10282900;28;20042;-89
2021/10/22 10:58:20;;;;;;;8.65;0.80;;;10.60;95.20;;;;;;10291897;28;20061;-90
2021/10/22 11:03:43;;;;;;;16.92;0.80;;;10.60;94.80;;;;;;10319697;28;20504;-90
2021/10/22 11:08:46;;;;;;;4.20;0.32;;;10.80;94.30;;;;;;10335270;28;20054;-89
2021/10/22 11:14:01;;;;;;;5.88;0.20;;;10.90;94.00;;;;;;10334851;28;20045;-90
2021/10/22 11:19:06;;;;;;;2.63;0.25;;;11.00;94.20;;;;;;10338484;28;20064;-90
2021/10/22 11:24:14;;;;;;;2.28;0.10;;;11.30;93.40;;;;;;10326717;28;20076;-90
2021/10/22 11:29:17;;;;;;;2.42;0.20;;;11.50;89.10;;;;;;10321709;28;20072;-91
2021/10/22 11:34:22;;;;;;;5.93;0.10;;;11.60;84.60;;;;;;10351478;28;20042;-91
2021/10/22 11:39:32;;;;;;;3.60;0.20;;;11.70;83.50;;;;;;10322112;28;20120;-91
2021/10/22 11:44:39;;;;;;;3.13;0.10;;;11.70;81.60;;;;;;10338272;28;20062;-91
2021/10/22 11:49:43;;;;;;;3.10;0.43;;;11.60;80.00;;;;;;10358459;28;20057;-90
2021/10/22 11:54:50;;;;;;;0.30;0.10;;;11.80;82.00;;;;;;10328737;28;20065;-91
2021/10/22 11:59:52;;;;;;;1.02;0.15;;;11.70;80.80;;;;;;10334603;28;20057;-90
2021/10/22 12:05:02;;;;;;;1.60;0.15;;;11.60;81.40;;;;;;10319911;28;20452;-90
2021/10/22 12:10:16;;;;;;;4.78;0.20;;;11.80;82.00;;;;;;10358493;28;20046;-90
2021/10/22 12:15:24;;;;;;;1.17;0.10;;;11.80;82.80;;;;;;10323664;28;20089;-89
2021/10/22 12:20:31;;;;;;;0.60;0.25;;;11.70;81.90;;;;;;10329668;28;20101;-90
2021/10/22 12:25:33;;;;;;;0.20;0.10;;;11.80;81.50;;;;;;10335540;28;20072;-90
2021/10/22 12:30:35;;;;;;;1.33;0.50;;;11.60;82.00;;;;;;10341472;28;20136;-91
2021/10/22 12:35:53;;;;;;;1.75;0.10;;;11.80;83.20;;;;;;10328090;28;20412;-90
2021/10/22 12:40:55;;;;;;;7.05;0.47;;;11.80;79.90;;;;;;10320862;28;20053;-90
2021/10/22 12:46:03;;;;;;;0.77;0.10;;;12.00;81.50;;;;;;10334856;28;20052;-91
2021/10/22 12:51:09;;;;;;;2.08;0.20;;;11.80;81.90;;;;;;10332683;28;20496;-90
2021/10/22 12:56:26;;;;;;;0.20;0.10;;;11.90;83.60;;;;;;10360458;28;20076;-90
2021/10/22 13:01:41;;;;;;;;;;;11.80;82.00;;;;;;10338411;28;20049;-90
2021/10/22 13:07:22;;;;;;;1.25;0.13;;;11.80;82.40;;;;;;10352470;28;20392;-90
2021/10/22 13:12:45;;;;;;;0.15;0.10;;;11.80;82.80;;;;;;10289875;28;20137;-90
2021/10/22 13:23:17;;;;;;;1.15;0.20;;;11.80;83.00;;;;;;10255234;28;21130;-90
2021/10/22 13:28:23;;;;;;;1.35;0.10;;;11.80;82.40;;;;;;10231921;28;20763;-90
2021/10/22 13:33:28;;;;;;;0.60;0.20;;;11.80;84.10;;;;;;10323391;28;20109;-89
2021/10/22 13:38:31;;;;;;;0.82;0.45;;;11.90;83.70;;;;;;10313987;28;20054;-89
2021/10/22 13:43:34;;;;;;;1.63;0.20;;;11.90;84.00;;;;;;10341505;28;20566;-89
2021/10/22 13:48:39;;;;;;;3.70;0.20;;;12.00;85.00;;;;;;10336475;28;20504;-90
2021/10/22 13:53:44;;;;;;;2.60;0.30;;;11.90;85.00;;;;;;10282961;28;20061;-89
2021/10/22 13:58:49;;;;;;;4.28;0.43;;;11.90;85.80;;;;;;10352466;28;20132;-89
2021/10/22 14:03:53;;;;;;;1.40;0.10;;;12.00;85.00;;;;;;10318746;28;20081;-89
2021/10/22 14:08:55;;;;;;;5.85;0.22;;;11.90;84.60;;;;;;10347845;28;20058;-89
2021/10/22 14:30:00;;;;;;;1.05;0.17;;;11.70;86.50;;;;;;10354035;28;20128;-89
2021/10/22 14:35:02;;;;;;;2.55;0.20;;;11.70;87.00;;;;;;10347704;28;20109;-88
2021/10/22 14:40:12;;;;;;;5.88;0.25;;;11.70;87.30;;;;;;10346194;28;20050;-87
2021/10/22 14:45:23;;;;;;;3.15;0.30;;;11.80;87.70;;;;;;10333850;28;20065;-88
2021/10/22 14:50:26;;;;;;;3.20;0.20;;;11.70;87.10;;;;;;10352102;28;20068;-89
2021/10/22 15:00:49;;;;;;;1.15;0.10;;;11.70;88.10;;;;;;10327668;28;20140;-90
2021/10/22 15:05:51;;;;;;;2.50;0.20;;;11.60;88.00;;;;;;10339648;28;20076;-90
2021/10/22 15:10:54;;;;;;;3.53;0.17;;;11.50;88.40;;;;;;10296400;28;20117;-89
2021/10/22 15:15:59;;;;;;;1.08;0.20;;;11.40;89.50;;;;;;10331250;28;20124;-90
2021/10/22 15:21:04;;;;;;;1.33;0.30;;;11.40;90.10;;;;;;10337041;28;20588;-91
2021/10/22 15:26:11;;;;;;;3.90;0.15;;;11.30;90.20;;;;;;10330393;28;20068;-90
2021/10/22 15:31:16;;;;;;;0.95;0.10;;;11.30;90.50;;;;;;10312449;28;20070;-90
2021/10/22 15:36:19;;;;;;;0.45;0.20;;;11.20;90.80;;;;;;10279370;28;20054;-90
2021/10/22 15:41:22;;;;;;;2.67;0.17;;;11.20;90.90;;;;;;10327430;28;20049;-88
2021/10/22 15:46:25;;;;;;;4.22;0.40;;;11.20;90.90;;;;;;10303286;28;20417;-88
2021/10/22 15:51:30;;;;;;;2.38;0.28;;;11.10;91.10;;;;;;10306618;28;20039;-89
2021/10/22 15:56:34;;;;;;;2.83;0.20;;;11.10;91.10;;;;;;10338080;28;20125;-90
2021/10/22 16:01:38;;;;;;;2.75;0.40;;;11.00;91.10;;;;;;10330965;28;20052;-90
2021/10/22 16:07:11;;;;;;;4.30;0.32;;;11.00;91.20;;;;;;10305978;28;20502;-89
2021/10/22 16:12:26;;;;;;;3.95;0.30;;;10.90;91.30;;;;;;10366341;23;20053;-61
2021/10/22 16:17:29;;;;;;;1.92;0.30;;;10.90;91.70;;;;;;10371765;28;20049;-61
2021/10/22 16:22:31;;;;;;;1.63;0.40;;;10.90;91.80;;;;;;10377420;28;20065;-62
2021/10/22 16:27:33;;;;;;;0.98;0.20;;;10.80;92.00;;;;;;10374573;28;20080;-59
2021/10/22 16:32:37;;;;;;;1.75;0.20;;;10.80;91.90;;;;;;10375998;28;20081;-58
2021/10/22 16:37:39;;;;;;;3.28;0.20;;;10.70;92.00;;;;;;10374940;28;20107;-59
2021/10/22 16:42:42;;;;;;;4.70;0.57;;;10.70;91.80;;;;;;10379889;28;20050;-59
2021/10/22 16:47:48;;;;;;;1.80;0.30;;;10.70;92.30;;;;;;10373883;28;20159;-57
2021/10/22 16:52:53;;;;;;;2.45;0.22;;;10.70;92.10;;;;;;10358598;28;20049;-59
2021/10/22 16:57:55;;;;;;;1.38;0.30;;;10.70;92.30;;;;;;10376891;28;20404;-57
2021/10/22 17:02:57;;;;;;;2.28;0.60;;;10.60;92.30;;;;;;10375562;28;20113;-59
2021/10/22 17:07:59;;;;;;;1.63;0.35;;;10.60;92.40;;;;;;10375600;28;20049;-59
2021/10/22 17:13:02;;;;;;;3.75;0.68;;;10.60;92.60;;;;;;10353365;28;20100;-59
2021/10/22 17:18:04;;;;;;;2.03;0.60;;;10.60;92.90;;;;;;10371836;28;20127;-58
2021/10/22 17:23:05;;;;;;;7.25;0.88;;;10.60;93.00;;;;;;10347703;28;20061;-58
2021/10/22 17:28:07;;;;;;;4.22;0.40;;;10.50;93.10;;;;;;10365418;28;20064;-58
2021/10/22 17:33:09;;;;;;;5.75;0.63;;;10.50;93.30;;;;;;10375322;28;20119;-59
2021/10/22 17:38:11;;;;;;;1.17;0.35;;;10.40;93.30;;;;;;10372656;28;20052;-57
2021/10/22 17:43:16;;;;;;;4.32;0.30;;;10.50;93.70;;;;;;10353222;28;20054;-58
2021/10/22 17:48:18;;;;;;;2.47;0.32;;;10.40;93.60;;;;;;10372875;28;20085;-58
2021/10/22 17:53:23;;;;;;;6.00;0.50;;;10.40;93.90;;;;;;10369657;28;20061;-58
2021/10/22 17:58:36;;;;;;;0.82;0.40;;;10.40;94.00;;;;;;10341522;28;20053;-58
2021/10/22 18:03:39;;;;;;;2.92;0.25;;;10.40;93.90;;;;;;10367507;28;20049;-58
2021/10/22 18:08:41;;;;;;;3.78;0.50;;;10.40;94.00;;;;;;10346893;28;20042;-58
2021/10/22 18:13:42;;;;;;;7.82;0.40;;;10.40;94.10;;;;;;10372589;28;20057;-58
2021/10/22 18:18:45;;;;;;;3.35;0.47;;;10.30;94.10;;;;;;10374595;28;20045;-60
2021/10/22 18:23:47;;;;;;;1.30;0.40;;;10.30;94.20;;;;;;10369089;28;20076;-59
2021/10/22 18:28:54;;;;;;;2.65;0.38;;;10.30;94.50;;;;;;10371751;28;20046;-59
2021/10/22 18:33:56;;;;;;;2.87;0.30;;;10.20;94.70;;;;;;10371989;28;20053;-59
2021/10/22 18:38:57;;;;;;;2.15;0.50;;;10.20;94.70;;;;;;10371935;28;20041;-59
2021/10/22 18:44:01;;;;;;;4.70;0.55;;;10.20;94.80;;;;;;10356351;28;20050;-59
2021/10/22 18:49:09;;;;;;;2.60;0.52;;;10.10;94.90;;;;;;10375487;28;20111;-58
2021/10/22 18:54:11;;;;;;;2.00;0.30;;;10.10;95.10;;;;;;10367747;28;20045;-59
2021/10/22 18:59:14;;;;;;;2.05;0.40;;;10.00;95.10;;;;;;10378062;28;20108;-59
2021/10/22 19:04:15;;;;;;;1.42;0.40;;;10.00;95.40;;;;;;10375015;28;20103;-59
2021/10/22 19:09:17;;;;;;;2.70;0.45;;;9.90;95.80;;;;;;10370623;28;20103;-59
2021/10/22 19:14:20;;;;;;;1.60;0.40;;;9.80;96.00;;;;;;10357375;28;20054;-59
2021/10/22 19:19:22;;;;;;;2.00;0.40;;;9.80;96.40;;;;;;10365285;28;20065;-58
2021/10/22 19:24:23;;;;;;;1.80;0.32;;;9.80;96.30;;;;;;10369937;28;20136;-59
2021/10/22 19:29:25;;;;;;;0.95;0.30;;;9.80;96.40;;;;;;10368698;28;20586;-59
2021/10/22 19:34:27;;;;;;;0.75;0.22;;;9.80;96.40;;;;;;10371110;28;20593;-58
2021/10/22 19:39:29;;;;;;;5.38;0.63;;;9.70;96.60;;;;;;10370062;28;20145;-59
2021/10/22 19:44:31;;;;;;;5.88;0.75;;;9.70;96.90;;;;;;10369936;28;20056;-58
2021/10/22 19:49:33;;;;;;;5.20;0.52;;;9.70;97.00;;;;;;10360353;28;20085;-59
2021/10/22 19:54:35;;;;;;;3.60;0.40;;;9.60;97.20;;;;;;10382055;28;20053;-58
2021/10/22 19:59:37;;;;;;;3.83;0.43;;;9.60;97.50;;;;;;10378669;28;20045;-58
2021/10/22 20:04:39;;;;;;;7.55;0.45;;;9.60;97.70;;;;;;10382393;28;20073;-58
2021/10/22 20:09:41;;;;;;;1.00;0.40;;;9.50;98.10;;;;;;10375235;28;20061;-58
2021/10/22 20:14:43;;;;;;;1.63;0.40;;;9.50;98.20;;;;;;10362119;28;20075;-59
2021/10/22 20:19:45;;;;;;;1.65;0.30;;;9.50;98.30;;;;;;10375801;28;20094;-58
2021/10/22 20:24:47;;;;;;;2.22;0.50;;;9.50;98.60;;;;;;10360697;28;20377;-59
2021/10/22 20:29:49;;;;;;;2.17;0.35;;;9.50;98.70;;;;;;10376359;28;20053;-57
2021/10/22 20:34:51;;;;;;;0.85;0.38;;;9.60;98.70;;;;;;10374523;28;20472;-58
2021/10/22 20:39:53;;;;;;;1.00;0.68;;;9.70;98.70;;;;;;10378452;28;20127;-58
2021/10/22 20:44:55;;;;;;;4.68;0.30;;;9.70;99.10;;;;;;10375181;28;20045;-57
2021/10/22 20:50:16;;;;;;;6.13;0.40;;;9.60;99.90;;;;;;10372867;28;20099;-57
2021/10/22 21:00:23;;;;;;;1.45;0.30;;;9.40;99.90;;;;;;10376842;28;20061;-59
2021/10/22 21:05:24;;;;;;;0.77;0.25;;;9.30;99.90;;;;;;10360236;28;22372;-57
2021/10/22 21:10:26;;;;;;;2.92;1.20;;;9.30;99.90;;;;;;10375723;28;20107;-57
2021/10/22 21:15:28;;;;;;;1.67;0.43;;;9.30;99.90;;;;;;10372420;28;20177;-58
2021/10/22 21:20:31;;;;;;;2.47;0.45;;;9.30;99.90;;;;;;10378718;28;20045;-57
2021/10/22 21:25:34;;;;;;;0.75;0.50;;;9.40;99.90;;;;;;10374135;28;20045;-57
2021/10/22 21:30:36;;;;;;;0.38;0.38;;;9.30;99.90;;;;;;10378789;28;20577;-58
2021/10/22 21:35:38;;;;;;;3.95;0.38;;;9.30;99.90;;;;;;10373874;28;20104;-57
2021/10/22 21:40:40;;;;;;;2.25;0.35;;;9.20;99.90;;;;;;10353835;28;20421;-58
2021/10/22 21:45:43;;;;;;;2.08;0.40;;;9.20;99.90;;;;;;10372137;28;20050;-56
2021/10/22 21:50:47;;;;;;;0.63;0.35;;;9.00;99.90;;;;;;10375799;28;20112;-58
2021/10/22 21:55:49;;;;;;;6.13;0.85;;;9.00;99.90;;;;;;10375556;28;20115;-58
2021/10/22 22:00:51;;;;;;;3.35;0.50;;;8.90;99.90;;;;;;10376116;28;20046;-58
2021/10/22 22:05:53;;;;;;;1.60;0.50;;;8.90;99.90;;;;;;10370684;28;20045;-58
2021/10/22 22:10:55;;;;;;;1.83;0.68;;;8.80;99.90;;;;;;10376769;28;20586;-58
2021/10/22 22:15:57;;;;;;;0.80;0.40;;;8.80;99.90;;;;;;10368737;28;20578;-58
2021/10/22 22:20:59;;;;;;;3.38;0.45;;;8.80;99.90;;;;;;10371522;28;20076;-58
2021/10/22 22:26:01;;;;;;;3.00;0.38;;;8.80;99.90;;;;;;10372108;28;20408;-58
2021/10/22 22:31:05;;;;;;;1.77;0.63;;;8.70;99.90;;;;;;10368544;28;20049;-57
2021/10/22 22:36:06;;;;;;;3.55;0.40;;;8.70;99.90;;;;;;10369546;28;20121;-57
2021/10/22 22:41:08;;;;;;;1.50;0.65;;;8.70;99.90;;;;;;10374317;28;20045;-57
2021/10/22 22:46:10;;;;;;;5.32;0.50;;;8.70;99.90;;;;;;10373664;28;20050;-57
2021/10/22 22:51:12;;;;;;;4.93;0.40;;;8.70;99.90;;;;;;10345784;28;20089;-57
2021/10/22 22:56:13;;;;;;;0.35;0.30;;;8.60;99.90;;;;;;10370340;28;20049;-57
2021/10/22 23:01:15;;;;;;;2.20;0.40;;;8.60;99.90;;;;;;10375430;28;20765;-58
2021/10/22 23:06:17;;;;;;;0.75;0.40;;;8.60;99.90;;;;;;10367563;28;20041;-57
2021/10/22 23:11:19;;;;;;;4.43;0.40;;;8.50;99.90;;;;;;10372294;28;20129;-57
2021/10/22 23:16:21;;;;;;;3.20;0.40;;;8.40;99.90;;;;;;10374117;28;20046;-57
2021/10/22 23:21:23;;;;;;;3.10;0.47;;;8.40;99.90;;;;;;10366084;28;20153;-57
2021/10/22 23:26:25;;;;;;;2.47;0.40;;;8.30;99.90;;;;;;10374596;28;20460;-57
2021/10/22 23:31:26;;;;;;;1.63;0.47;;;8.20;99.90;;;;;;10369384;28;20073;-57
2021/10/22 23:36:28;;;;;;;2.50;0.73;;;8.20;99.90;;;;;;10369198;28;20333;-57
2021/10/22 23:41:29;;;;;;;1.77;0.70;;;8.20;99.90;;;;;;10370051;28;20504;-57
2021/10/22 23:46:31;;;;;;;1.80;0.40;;;8.10;99.90;;;;;;10366172;28;20095;-56
2021/10/22 23:51:33;;;;;;;3.65;0.55;;;8.20;99.90;;;;;;10373646;28;20463;-57
2021/10/22 23:56:35;;;;;;;1.83;0.43;;;8.20;99.90;;;;;;10370841;28;20080;-56
